sensor_id;sensor_type;location;lat;lon;timestamp;pressure;altitude;pressure_sealevel;temperature;humidity
71149;BME280;59072;42.144;25.200;2023-06-24T00:02:15;100045.41;;;22.81;60.05
71149;BME280;59072;42.144;25.200;2023-06-24T00:04:40;100049.81;;;22.77;60.42
71149;BME280;59072;42.144;25.200;2023-06-24T00:07:05;100051.91;;;22.53;60.82
71149;BME280;59072;42.144;25.200;2023-06-24T00:09:32;100053.41;;;22.59;60.63
71149;BME280;59072;42.144;25.200;2023-06-24T00:11:58;100045.03;;;22.41;60.60
71149;BME280;59072;42.144;25.200;2023-06-24T00:14:27;100032.59;;;22.68;59.73
71149;BME280;59072;42.144;25.200;2023-06-24T00:16:54;100040.53;;;22.51;59.96
71149;BME280;59072;42.144;25.200;2023-06-24T00:19:20;100041.81;;;22.53;60.33
71149;BME280;59072;42.144;25.200;2023-06-24T00:21:47;100049.47;;;22.37;60.08
71149;BME280;59072;42.144;25.200;2023-06-24T00:24:13;100024.41;;;22.40;59.60
71149;BME280;59072;42.144;25.200;2023-06-24T00:26:38;100040.19;;;22.38;59.88
71149;BME280;59072;42.144;25.200;2023-06-24T00:29:04;100041.81;;;22.39;60.05
71149;BME280;59072;42.144;25.200;2023-06-24T00:31:29;100042.56;;;22.26;60.74
71149;BME280;59072;42.144;25.200;2023-06-24T00:33:55;100045.22;;;22.45;59.99
71149;BME280;59072;42.144;25.200;2023-06-24T00:36:21;100036.38;;;22.39;60.50
71149;BME280;59072;42.144;25.200;2023-06-24T00:38:46;100044.19;;;22.27;61.46
71149;BME280;59072;42.144;25.200;2023-06-24T00:41:14;100041.22;;;22.42;61.55
71149;BME280;59072;42.144;25.200;2023-06-24T00:43:41;100033.53;;;22.31;62.25
71149;BME280;59072;42.144;25.200;2023-06-24T00:46:06;100032.94;;;22.15;63.20
71149;BME280;59072;42.144;25.200;2023-06-24T00:48:32;100041.69;;;22.12;63.85
71149;BME280;59072;42.144;25.200;2023-06-24T00:50:57;100034.59;;;21.97;64.37
71149;BME280;59072;42.144;25.200;2023-06-24T00:53:23;100035.31;;;22.02;64.33
71149;BME280;59072;42.144;25.200;2023-06-24T00:55:51;100040.59;;;22.13;64.18
71149;BME280;59072;42.144;25.200;2023-06-24T00:58:18;100034.09;;;21.76;66.10
71149;BME280;59072;42.144;25.200;2023-06-24T01:00:47;100045.91;;;21.47;68.01
71149;BME280;59072;42.144;25.200;2023-06-24T01:03:13;100041.47;;;21.32;69.47
71149;BME280;59072;42.144;25.200;2023-06-24T01:05:40;100044.66;;;21.15;71.52
71149;BME280;59072;42.144;25.200;2023-06-24T01:08:06;100040.97;;;21.06;72.38
71149;BME280;59072;42.144;25.200;2023-06-24T01:10:32;100042.19;;;20.95;73.51
71149;BME280;59072;42.144;25.200;2023-06-24T01:12:57;100036.28;;;20.87;74.28
71149;BME280;59072;42.144;25.200;2023-06-24T01:15:23;100039.13;;;20.77;74.55
71149;BME280;59072;42.144;25.200;2023-06-24T01:20:30;100038.47;;;20.85;74.98
71149;BME280;59072;42.144;25.200;2023-06-24T01:23:24;100033.28;;;21.13;73.67
71149;BME280;59072;42.144;25.200;2023-06-24T01:25:59;100039.19;;;20.72;75.75
71149;BME280;59072;42.144;25.200;2023-06-24T01:37:14;100038.00;;;20.20;78.37
71149;BME280;59072;42.144;25.200;2023-06-24T01:39:56;100037.19;;;20.19;78.94
71149;BME280;59072;42.144;25.200;2023-06-24T01:42:22;100036.94;;;20.16;79.31
71149;BME280;59072;42.144;25.200;2023-06-24T01:44:49;100034.25;;;20.16;79.43
71149;BME280;59072;42.144;25.200;2023-06-24T01:47:26;100027.31;;;20.04;79.96
71149;BME280;59072;42.144;25.200;2023-06-24T01:49:58;100030.97;;;20.19;79.55
71149;BME280;59072;42.144;25.200;2023-06-24T01:52:27;100024.44;;;20.25;79.48
71149;BME280;59072;42.144;25.200;2023-06-24T01:54:55;100029.34;;;20.18;79.91
71149;BME280;59072;42.144;25.200;2023-06-24T01:57:22;100030.72;;;20.15;79.91
71149;BME280;59072;42.144;25.200;2023-06-24T01:59:48;100021.56;;;20.11;80.15
71149;BME280;59072;42.144;25.200;2023-06-24T02:02:18;100016.63;;;20.47;78.30
71149;BME280;59072;42.144;25.200;2023-06-24T02:04:45;100029.16;;;20.38;78.90
71149;BME280;59072;42.144;25.200;2023-06-24T02:07:11;100028.75;;;20.26;79.39
71149;BME280;59072;42.144;25.200;2023-06-24T02:09:39;100033.03;;;20.32;79.48
71149;BME280;59072;42.144;25.200;2023-06-24T02:12:06;100033.72;;;20.14;80.43
71149;BME280;59072;42.144;25.200;2023-06-24T02:14:34;100043.03;;;19.97;81.60
71149;BME280;59072;42.144;25.200;2023-06-24T02:17:03;100038.81;;;20.20;80.10
71149;BME280;59072;42.144;25.200;2023-06-24T02:19:30;100034.94;;;19.97;81.23
71149;BME280;59072;42.144;25.200;2023-06-24T02:21:59;100046.78;;;20.06;81.56
71149;BME280;59072;42.144;25.200;2023-06-24T02:24:27;100045.13;;;20.11;81.19
71149;BME280;59072;42.144;25.200;2023-06-24T02:26:54;100069.03;;;19.98;81.80
71149;BME280;59072;42.144;25.200;2023-06-24T02:29:22;100059.91;;;20.53;78.33
71149;BME280;59072;42.144;25.200;2023-06-24T02:31:48;100063.78;;;20.46;78.07
71149;BME280;59072;42.144;25.200;2023-06-24T02:34:14;100057.03;;;20.44;77.80
71149;BME280;59072;42.144;25.200;2023-06-24T02:36:39;100080.00;;;20.52;77.82
71149;BME280;59072;42.144;25.200;2023-06-24T02:39:05;100066.50;;;20.76;76.83
71149;BME280;59072;42.144;25.200;2023-06-24T02:41:30;100079.56;;;20.39;78.17
71149;BME280;59072;42.144;25.200;2023-06-24T02:43:55;100088.22;;;20.41;78.55
71149;BME280;59072;42.144;25.200;2023-06-24T02:46:21;100084.63;;;20.46;77.75
71149;BME280;59072;42.144;25.200;2023-06-24T02:48:48;100093.63;;;20.41;77.76
71149;BME280;59072;42.144;25.200;2023-06-24T02:51:15;100083.44;;;20.28;77.95
71149;BME280;59072;42.144;25.200;2023-06-24T02:53:41;100096.94;;;20.33;78.11
71149;BME280;59072;42.144;25.200;2023-06-24T02:56:08;100086.25;;;19.68;81.13
71149;BME280;59072;42.144;25.200;2023-06-24T02:58:36;100081.13;;;19.72;82.29
71149;BME280;59072;42.144;25.200;2023-06-24T03:01:03;100097.84;;;19.79;81.84
71149;BME280;59072;42.144;25.200;2023-06-24T03:03:32;100097.03;;;20.23;79.55
71149;BME280;59072;42.144;25.200;2023-06-24T03:05:58;100111.72;;;20.46;78.41
71149;BME280;59072;42.144;25.200;2023-06-24T03:08:25;100107.56;;;20.59;77.59
71149;BME280;59072;42.144;25.200;2023-06-24T03:10:54;100108.91;;;20.27;79.31
71149;BME280;59072;42.144;25.200;2023-06-24T03:13:19;100112.13;;;20.29;78.69
71149;BME280;59072;42.144;25.200;2023-06-24T03:15:45;100120.22;;;20.69;77.00
71149;BME280;59072;42.144;25.200;2023-06-24T03:18:10;100104.63;;;20.21;78.80
71149;BME280;59072;42.144;25.200;2023-06-24T03:20:36;100118.63;;;20.28;78.78
71149;BME280;59072;42.144;25.200;2023-06-24T03:23:05;100122.50;;;20.17;79.85
71149;BME280;59072;42.144;25.200;2023-06-24T03:25:32;100119.31;;;20.10;80.84
71149;BME280;59072;42.144;25.200;2023-06-24T03:27:57;100119.38;;;19.99;80.88
71149;BME280;59072;42.144;25.200;2023-06-24T03:30:22;100111.88;;;19.86;82.12
71149;BME280;59072;42.144;25.200;2023-06-24T03:32:48;100104.31;;;19.83;82.31
71149;BME280;59072;42.144;25.200;2023-06-24T03:35:14;100108.41;;;19.75;82.63
71149;BME280;59072;42.144;25.200;2023-06-24T03:37:39;100107.75;;;19.99;82.08
71149;BME280;59072;42.144;25.200;2023-06-24T03:40:05;100107.06;;;20.17;80.89
71149;BME280;59072;42.144;25.200;2023-06-24T03:42:31;100108.66;;;20.58;78.50
71149;BME280;59072;42.144;25.200;2023-06-24T03:44:56;100114.00;;;20.68;77.89
71149;BME280;59072;42.144;25.200;2023-06-24T03:47:22;100109.72;;;20.62;77.41
71149;BME280;59072;42.144;25.200;2023-06-24T03:49:47;100126.88;;;20.81;76.69
71149;BME280;59072;42.144;25.200;2023-06-24T03:52:13;100135.31;;;20.40;78.60
71149;BME280;59072;42.144;25.200;2023-06-24T03:54:38;100125.22;;;20.17;80.79
71149;BME280;59072;42.144;25.200;2023-06-24T03:57:06;100114.41;;;20.12;81.72
71149;BME280;59072;42.144;25.200;2023-06-24T03:59:32;100113.47;;;19.92;81.99
71149;BME280;59072;42.144;25.200;2023-06-24T04:01:58;100107.75;;;19.94;82.51
71149;BME280;59072;42.144;25.200;2023-06-24T04:04:23;100102.94;;;19.85;83.66
71149;BME280;59072;42.144;25.200;2023-06-24T04:06:49;100107.75;;;19.99;83.76
71149;BME280;59072;42.144;25.200;2023-06-24T04:09:14;100098.69;;;20.14;83.34
71149;BME280;59072;42.144;25.200;2023-06-24T04:11:39;100112.44;;;20.22;82.56
71149;BME280;59072;42.144;25.200;2023-06-24T04:14:05;100114.72;;;20.44;81.88
71149;BME280;59072;42.144;25.200;2023-06-24T04:16:32;100114.03;;;20.63;80.89
71149;BME280;59072;42.144;25.200;2023-06-24T04:18:58;100118.84;;;20.71;80.61
71149;BME280;59072;42.144;25.200;2023-06-24T04:21:23;100114.00;;;20.68;80.92
71149;BME280;59072;42.144;25.200;2023-06-24T04:23:48;100123.81;;;20.64;81.53
71149;BME280;59072;42.144;25.200;2023-06-24T04:26:14;100123.13;;;20.77;81.12
71149;BME280;59072;42.144;25.200;2023-06-24T04:28:39;100121.22;;;20.78;80.76
71149;BME280;59072;42.144;25.200;2023-06-24T04:31:05;100123.81;;;20.64;81.23
71149;BME280;59072;42.144;25.200;2023-06-24T04:33:30;100121.31;;;20.97;79.86
71149;BME280;59072;42.144;25.200;2023-06-24T04:35:56;100113.31;;;21.11;79.03
71149;BME280;59072;42.144;25.200;2023-06-24T04:38:21;100124.56;;;21.47;77.64
71149;BME280;59072;42.144;25.200;2023-06-24T04:40:48;100122.97;;;21.46;78.12
71149;BME280;59072;42.144;25.200;2023-06-24T04:43:13;100120.06;;;21.61;76.51
71149;BME280;59072;42.144;25.200;2023-06-24T04:45:39;100127.50;;;21.75;76.27
71149;BME280;59072;42.144;25.200;2023-06-24T04:48:05;100128.56;;;21.74;75.84
71149;BME280;59072;42.144;25.200;2023-06-24T04:50:30;100123.16;;;21.74;75.78
71149;BME280;59072;42.144;25.200;2023-06-24T04:52:55;100121.84;;;21.90;75.64
71149;BME280;59072;42.144;25.200;2023-06-24T04:55:24;100121.13;;;22.03;75.14
71149;BME280;59072;42.144;25.200;2023-06-24T04:57:49;100122.72;;;22.04;74.40
71149;BME280;59072;42.144;25.200;2023-06-24T05:00:15;100114.81;;;21.89;75.65
71149;BME280;59072;42.144;25.200;2023-06-24T05:02:40;100126.19;;;22.29;74.28
71149;BME280;59072;42.144;25.200;2023-06-24T05:05:06;100131.84;;;22.52;72.90
71149;BME280;59072;42.144;25.200;2023-06-24T05:07:32;100129.78;;;22.43;71.96
71149;BME280;59072;42.144;25.200;2023-06-24T05:09:57;100142.38;;;22.53;71.79
71149;BME280;59072;42.144;25.200;2023-06-24T05:12:23;100144.00;;;22.87;70.42
71149;BME280;59072;42.144;25.200;2023-06-24T05:14:51;100137.72;;;22.73;70.98
71149;BME280;59072;42.144;25.200;2023-06-24T05:17:18;100145.38;;;23.03;69.22
71149;BME280;59072;42.144;25.200;2023-06-24T05:19:44;100135.84;;;22.87;69.65
71149;BME280;59072;42.144;25.200;2023-06-24T05:22:09;100140.81;;;22.99;71.06
71149;BME280;59072;42.144;25.200;2023-06-24T05:24:35;100129.16;;;23.12;69.69
71149;BME280;59072;42.144;25.200;2023-06-24T05:27:04;100131.56;;;23.14;68.77
71149;BME280;59072;42.144;25.200;2023-06-24T05:29:31;100140.22;;;23.57;68.16
71149;BME280;59072;42.144;25.200;2023-06-24T05:31:57;100130.53;;;23.65;65.25
71149;BME280;59072;42.144;25.200;2023-06-24T05:34:23;100138.41;;;23.66;65.09
71149;BME280;59072;42.144;25.200;2023-06-24T05:36:49;100148.91;;;23.87;63.74
71149;BME280;59072;42.144;25.200;2023-06-24T05:39:14;100145.03;;;23.88;64.60
71149;BME280;59072;42.144;25.200;2023-06-24T05:41:39;100156.34;;;23.67;64.50
71149;BME280;59072;42.144;25.200;2023-06-24T05:44:09;100134.78;;;23.85;63.37
71149;BME280;59072;42.144;25.200;2023-06-24T05:46:37;100136.22;;;23.82;63.70
71149;BME280;59072;42.144;25.200;2023-06-24T05:49:03;100155.47;;;24.09;61.80
71149;BME280;59072;42.144;25.200;2023-06-24T05:51:28;100158.34;;;24.03;61.11
71149;BME280;59072;42.144;25.200;2023-06-24T05:53:54;100158.34;;;24.03;63.97
71149;BME280;59072;42.144;25.200;2023-06-24T05:56:20;100161.84;;;24.40;60.28
71149;BME280;59072;42.144;25.200;2023-06-24T05:58:50;100166.09;;;24.69;60.29
71149;BME280;59072;42.144;25.200;2023-06-24T06:01:15;100171.75;;;24.36;59.92
71149;BME280;59072;42.144;25.200;2023-06-24T06:03:41;100164.94;;;24.70;60.35
71149;BME280;59072;42.144;25.200;2023-06-24T06:06:06;100171.13;;;24.84;59.23
71149;BME280;59072;42.144;25.200;2023-06-24T06:08:32;100180.72;;;24.73;59.10
71149;BME280;59072;42.144;25.200;2023-06-24T06:10:58;100192.72;;;24.72;58.23
71149;BME280;59072;42.144;25.200;2023-06-24T06:13:24;100178.81;;;24.82;56.94
71149;BME280;59072;42.144;25.200;2023-06-24T06:15:49;100182.03;;;25.07;58.71
71149;BME280;59072;42.144;25.200;2023-06-24T06:18:15;100178.91;;;25.22;57.06
71149;BME280;59072;42.144;25.200;2023-06-24T06:20:40;100186.34;;;25.31;56.79
71149;BME280;59072;42.144;25.200;2023-06-24T06:23:06;100181.59;;;25.14;56.30
71149;BME280;59072;42.144;25.200;2023-06-24T06:25:32;100172.06;;;25.34;57.06
71149;BME280;59072;42.144;25.200;2023-06-24T06:27:58;100171.50;;;25.54;56.63
71149;BME280;59072;42.144;25.200;2023-06-24T06:30:25;100165.06;;;25.50;56.09
71149;BME280;59072;42.144;25.200;2023-06-24T06:32:51;100171.72;;;25.75;55.64
71149;BME280;59072;42.144;25.200;2023-06-24T06:35:16;100173.47;;;25.80;54.94
71149;BME280;59072;42.144;25.200;2023-06-24T06:37:41;100160.41;;;25.59;55.57
71149;BME280;59072;42.144;25.200;2023-06-24T06:40:07;100176.47;;;25.52;54.88
71149;BME280;59072;42.144;25.200;2023-06-24T06:42:33;100165.78;;;25.82;54.53
71149;BME280;59072;42.144;25.200;2023-06-24T06:44:58;100157.75;;;25.85;53.97
71149;BME280;59072;42.144;25.200;2023-06-24T06:47:24;100170.66;;;26.11;52.96
71149;BME280;59072;42.144;25.200;2023-06-24T06:49:50;100157.50;;;26.22;53.64
71149;BME280;59072;42.144;25.200;2023-06-24T06:52:16;100150.25;;;26.00;54.48
71149;BME280;59072;42.144;25.200;2023-06-24T06:54:41;100154.72;;;26.13;54.67
71149;BME280;59072;42.144;25.200;2023-06-24T06:57:06;100152.34;;;26.20;54.12
71149;BME280;59072;42.144;25.200;2023-06-24T06:59:32;100138.81;;;26.06;55.22
71149;BME280;59072;42.144;25.200;2023-06-24T07:01:58;100142.84;;;26.18;54.69
71149;BME280;59072;42.144;25.200;2023-06-24T07:04:24;100136.88;;;26.33;55.03
71149;BME280;59072;42.144;25.200;2023-06-24T07:06:49;100147.97;;;26.63;54.04
71149;BME280;59072;42.144;25.200;2023-06-24T07:09:14;100138.06;;;26.97;52.65
71149;BME280;59072;42.144;25.200;2023-06-24T07:11:41;100144.47;;;27.01;53.48
71149;BME280;59072;42.144;25.200;2023-06-24T07:14:06;100144.28;;;26.41;52.67
71149;BME280;59072;42.144;25.200;2023-06-24T07:16:32;100144.59;;;26.66;53.34
71149;BME280;59072;42.144;25.200;2023-06-24T07:18:57;100155.00;;;26.90;50.89
71149;BME280;59072;42.144;25.200;2023-06-24T07:21:23;100143.25;;;26.90;51.63
71149;BME280;59072;42.144;25.200;2023-06-24T07:23:48;100129.69;;;27.02;53.22
71149;BME280;59072;42.144;25.200;2023-06-24T07:26:14;100144.88;;;27.29;52.33
71149;BME280;59072;42.144;25.200;2023-06-24T07:28:39;100151.41;;;27.75;49.92
71149;BME280;59072;42.144;25.200;2023-06-24T07:31:04;100144.91;;;28.10;50.03
71149;BME280;59072;42.144;25.200;2023-06-24T07:33:30;100128.69;;;28.17;48.76
71149;BME280;59072;42.144;25.200;2023-06-24T07:35:56;100136.16;;;27.95;49.77
71149;BME280;59072;42.144;25.200;2023-06-24T07:38:21;100122.97;;;28.10;49.08
71149;BME280;59072;42.144;25.200;2023-06-24T07:40:47;100126.44;;;28.19;47.67
71149;BME280;59072;42.144;25.200;2023-06-24T07:43:13;100123.72;;;28.31;47.18
71149;BME280;59072;42.144;25.200;2023-06-24T07:45:38;100130.53;;;28.67;48.96
71149;BME280;59072;42.144;25.200;2023-06-24T07:48:04;100124.09;;;28.42;48.86
71149;BME280;59072;42.144;25.200;2023-06-24T07:50:30;100130.59;;;28.04;48.30
71149;BME280;59072;42.144;25.200;2023-06-24T07:52:56;100132.81;;;28.65;48.38
71149;BME280;59072;42.144;25.200;2023-06-24T07:55:22;100122.25;;;28.34;48.43
71149;BME280;59072;42.144;25.200;2023-06-24T07:57:47;100133.88;;;28.52;48.59
71149;BME280;59072;42.144;25.200;2023-06-24T08:00:14;100130.19;;;28.48;48.30
71149;BME280;59072;42.144;25.200;2023-06-24T08:02:41;100127.09;;;28.82;50.32
71149;BME280;59072;42.144;25.200;2023-06-24T08:05:07;100132.16;;;28.93;47.96
71149;BME280;59072;42.144;25.200;2023-06-24T08:07:34;100124.84;;;29.09;46.86
71149;BME280;59072;42.144;25.200;2023-06-24T08:10:00;100132.78;;;29.35;46.85
71149;BME280;59072;42.144;25.200;2023-06-24T08:12:25;100131.03;;;28.94;48.35
71149;BME280;59072;42.144;25.200;2023-06-24T08:14:50;100132.44;;;29.24;47.17
71149;BME280;59072;42.144;25.200;2023-06-24T08:17:16;100133.03;;;29.30;46.24
71149;BME280;59072;42.144;25.200;2023-06-24T08:19:41;100129.81;;;29.53;45.23
71149;BME280;59072;42.144;25.200;2023-06-24T08:22:07;100127.28;;;29.72;44.54
71149;BME280;59072;42.144;25.200;2023-06-24T08:24:32;100123.22;;;29.94;43.10
71149;BME280;59072;42.144;25.200;2023-06-24T08:26:58;100119.13;;;29.76;45.14
71149;BME280;59072;42.144;25.200;2023-06-24T08:29:23;100130.47;;;29.74;44.62
71149;BME280;59072;42.144;25.200;2023-06-24T08:31:48;100134.34;;;29.86;45.67
71149;BME280;59072;42.144;25.200;2023-06-24T08:34:14;100128.75;;;29.82;45.46
71149;BME280;59072;42.144;25.200;2023-06-24T08:36:39;100126.41;;;29.96;45.24
71149;BME280;59072;42.144;25.200;2023-06-24T08:39:05;100128.34;;;30.08;44.06
71149;BME280;59072;42.144;25.200;2023-06-24T08:41:30;100121.69;;;30.37;44.55
71149;BME280;59072;42.144;25.200;2023-06-24T08:43:55;100127.16;;;30.09;44.83
71149;BME280;59072;42.144;25.200;2023-06-24T08:46:23;100112.47;;;30.46;45.36
71149;BME280;59072;42.144;25.200;2023-06-24T08:48:54;100114.78;;;30.43;43.94
71149;BME280;59072;42.144;25.200;2023-06-24T08:51:27;100112.75;;;30.40;44.17
71149;BME280;59072;42.144;25.200;2023-06-24T08:53:55;100123.25;;;30.51;44.38
71149;BME280;59072;42.144;25.200;2023-06-24T08:56:21;100123.06;;;30.59;43.17
71149;BME280;59072;42.144;25.200;2023-06-24T08:58:46;100112.03;;;30.88;43.78
71149;BME280;59072;42.144;25.200;2023-06-24T09:01:12;100117.06;;;31.01;43.03
71149;BME280;59072;42.144;25.200;2023-06-24T09:03:37;100123.66;;;31.29;42.59
71149;BME280;59072;42.144;25.200;2023-06-24T09:06:03;100114.31;;;31.17;41.57
71149;BME280;59072;42.144;25.200;2023-06-24T09:08:28;100125.00;;;31.03;42.80
71149;BME280;59072;42.144;25.200;2023-06-24T09:10:54;100117.81;;;31.14;42.43
71149;BME280;59072;42.144;25.200;2023-06-24T09:13:20;100120.59;;;31.34;41.17
71149;BME280;59072;42.144;25.200;2023-06-24T09:15:48;100114.84;;;31.07;41.79
71149;BME280;59072;42.144;25.200;2023-06-24T09:18:13;100115.88;;;31.34;42.77
71149;BME280;59072;42.144;25.200;2023-06-24T09:20:42;100115.44;;;31.32;41.07
71149;BME280;59072;42.144;25.200;2023-06-24T09:23:10;100119.34;;;31.63;40.69
71149;BME280;59072;42.144;25.200;2023-06-24T09:25:36;100117.81;;;31.66;41.11
71149;BME280;59072;42.144;25.200;2023-06-24T09:28:02;100120.00;;;31.95;39.65
71149;BME280;59072;42.144;25.200;2023-06-24T09:30:28;100107.19;;;32.03;39.53
71149;BME280;59072;42.144;25.200;2023-06-24T09:32:55;100118.22;;;31.83;39.94
71149;BME280;59072;42.144;25.200;2023-06-24T09:35:22;100090.53;;;31.60;40.42
71149;BME280;59072;42.144;25.200;2023-06-24T09:40:16;100101.09;;;31.94;39.02
71149;BME280;59072;42.144;25.200;2023-06-24T09:42:55;100090.25;;;32.24;38.58
71149;BME280;59072;42.144;25.200;2023-06-24T09:47:52;100094.28;;;32.07;39.29
71149;BME280;59072;42.144;25.200;2023-06-24T09:50:17;100088.66;;;32.23;37.71
71149;BME280;59072;42.144;25.200;2023-06-24T09:52:44;100084.78;;;32.47;35.93
71149;BME280;59072;42.144;25.200;2023-06-24T09:55:13;100074.19;;;32.72;36.75
71149;BME280;59072;42.144;25.200;2023-06-24T09:57:41;100080.22;;;32.35;37.27
71149;BME280;59072;42.144;25.200;2023-06-24T10:00:09;100074.91;;;32.69;36.68
71149;BME280;59072;42.144;25.200;2023-06-24T10:02:35;100072.06;;;33.12;37.65
71149;BME280;59072;42.144;25.200;2023-06-24T10:05:01;100072.47;;;33.10;36.01
71149;BME280;59072;42.144;25.200;2023-06-24T10:07:28;100069.38;;;33.15;35.53
71149;BME280;59072;42.144;25.200;2023-06-24T10:09:54;100060.88;;;33.28;35.40
71149;BME280;59072;42.144;25.200;2023-06-24T10:12:20;100059.06;;;33.39;35.21
71149;BME280;59072;42.144;25.200;2023-06-24T10:14:45;100052.91;;;33.22;34.89
71149;BME280;59072;42.144;25.200;2023-06-24T10:17:11;100048.81;;;33.70;34.59
71149;BME280;59072;42.144;25.200;2023-06-24T10:19:38;100043.78;;;33.79;35.11
71149;BME280;59072;42.144;25.200;2023-06-24T10:22:07;100026.75;;;33.47;35.29
71149;BME280;59072;42.144;25.200;2023-06-24T10:24:35;100035.94;;;33.54;34.98
71149;BME280;59072;42.144;25.200;2023-06-24T10:27:06;100030.41;;;33.54;35.31
71149;BME280;59072;42.144;25.200;2023-06-24T10:29:36;100017.28;;;33.74;34.89
71149;BME280;59072;42.144;25.200;2023-06-24T10:32:03;100012.19;;;33.19;35.03
71149;BME280;59072;42.144;25.200;2023-06-24T10:34:43;100021.16;;;33.70;34.65
71149;BME280;59072;42.144;25.200;2023-06-24T10:37:19;100014.88;;;34.48;33.13
71149;BME280;59072;42.144;25.200;2023-06-24T10:39:51;100018.03;;;34.09;34.32
71149;BME280;59072;42.144;25.200;2023-06-24T10:44:53;100006.84;;;34.35;34.28
71149;BME280;59072;42.144;25.200;2023-06-24T10:47:21;100010.56;;;34.54;32.79
71149;BME280;59072;42.144;25.200;2023-06-24T10:49:46;100010.16;;;34.52;31.58
71149;BME280;59072;42.144;25.200;2023-06-24T10:52:12;100018.09;;;34.57;31.53
71149;BME280;59072;42.144;25.200;2023-06-24T10:54:39;100012.84;;;34.93;31.32
71149;BME280;59072;42.144;25.200;2023-06-24T10:57:05;100004.78;;;34.73;32.78
71149;BME280;59072;42.144;25.200;2023-06-24T10:59:35;100011.38;;;35.10;32.10
71149;BME280;59072;42.144;25.200;2023-06-24T11:02:01;99998.38;;;34.62;33.12
71149;BME280;59072;42.144;25.200;2023-06-24T11:04:26;99999.25;;;34.73;32.81
71149;BME280;59072;42.144;25.200;2023-06-24T11:07:02;99993.00;;;34.84;31.64
71149;BME280;59072;42.144;25.200;2023-06-24T11:09:27;99985.94;;;34.93;31.47
71149;BME280;59072;42.144;25.200;2023-06-24T11:11:53;99975.09;;;35.29;31.01
71149;BME280;59072;42.144;25.200;2023-06-24T11:14:21;99985.09;;;35.59;30.51
71149;BME280;59072;42.144;25.200;2023-06-24T11:16:47;99981.53;;;35.62;31.03
71149;BME280;59072;42.144;25.200;2023-06-24T11:19:12;99981.44;;;35.40;30.20
71149;BME280;59072;42.144;25.200;2023-06-24T11:21:38;99967.41;;;35.08;30.42
71149;BME280;59072;42.144;25.200;2023-06-24T11:24:04;99962.56;;;35.75;28.89
71149;BME280;59072;42.144;25.200;2023-06-24T11:26:30;99954.25;;;35.68;29.82
71149;BME280;59072;42.144;25.200;2023-06-24T11:28:55;99946.34;;;35.70;30.14
71149;BME280;59072;42.144;25.200;2023-06-24T11:31:27;99933.66;;;35.83;30.38
71149;BME280;59072;42.144;25.200;2023-06-24T11:33:53;99937.06;;;35.33;31.23
71149;BME280;59072;42.144;25.200;2023-06-24T11:36:19;99939.31;;;35.10;31.36
71149;BME280;59072;42.144;25.200;2023-06-24T11:38:48;99938.94;;;35.11;29.85
71149;BME280;59072;42.144;25.200;2023-06-24T11:41:14;99934.78;;;35.60;28.51
71149;BME280;59072;42.144;25.200;2023-06-24T11:43:44;99918.22;;;35.93;28.51
71149;BME280;59072;42.144;25.200;2023-06-24T11:46:10;99918.66;;;36.27;29.70
71149;BME280;59072;42.144;25.200;2023-06-24T11:48:40;99921.38;;;35.77;29.63
71149;BME280;59072;42.144;25.200;2023-06-24T11:51:12;99912.25;;;36.12;28.83
71149;BME280;59072;42.144;25.200;2023-06-24T11:53:44;99916.66;;;36.38;28.23
71149;BME280;59072;42.144;25.200;2023-06-24T11:56:11;99917.41;;;36.53;28.77
71149;BME280;59072;42.144;25.200;2023-06-24T11:58:37;99916.22;;;36.58;29.61
71149;BME280;59072;42.144;25.200;2023-06-24T12:01:03;99915.03;;;35.66;29.81
71149;BME280;59072;42.144;25.200;2023-06-24T12:03:32;99900.03;;;36.17;30.90
71149;BME280;59072;42.144;25.200;2023-06-24T12:05:58;99907.13;;;36.47;29.15
71149;BME280;59072;42.144;25.200;2023-06-24T12:08:24;99895.25;;;36.17;29.98
71149;BME280;59072;42.144;25.200;2023-06-24T12:10:50;99907.91;;;36.08;31.48
71149;BME280;59072;42.144;25.200;2023-06-24T12:13:15;99897.19;;;36.60;29.33
71149;BME280;59072;42.144;25.200;2023-06-24T12:15:41;99897.56;;;36.80;28.23
71149;BME280;59072;42.144;25.200;2023-06-24T12:18:07;99904.56;;;37.10;27.91
71149;BME280;59072;42.144;25.200;2023-06-24T12:20:32;99910.25;;;36.81;28.12
71149;BME280;59072;42.144;25.200;2023-06-24T12:22:59;99899.19;;;35.91;27.92
71149;BME280;59072;42.144;25.200;2023-06-24T12:25:25;99899.19;;;36.42;30.24
71149;BME280;59072;42.144;25.200;2023-06-24T12:27:50;99890.41;;;36.57;27.83
71149;BME280;59072;42.144;25.200;2023-06-24T12:30:16;99874.38;;;37.08;27.94
71149;BME280;59072;42.144;25.200;2023-06-24T12:32:42;99879.16;;;37.08;28.33
71149;BME280;59072;42.144;25.200;2023-06-24T12:35:08;99876.84;;;36.92;28.99
71149;BME280;59072;42.144;25.200;2023-06-24T12:37:35;99883.25;;;36.82;26.45
71149;BME280;59072;42.144;25.200;2023-06-24T12:40:01;99886.44;;;36.80;28.00
71149;BME280;59072;42.144;25.200;2023-06-24T12:42:27;99870.63;;;36.52;27.37
71149;BME280;59072;42.144;25.200;2023-06-24T12:44:52;99873.00;;;36.50;28.44
71149;BME280;59072;42.144;25.200;2023-06-24T12:47:18;99857.81;;;36.87;28.80
71149;BME280;59072;42.144;25.200;2023-06-24T12:49:44;99869.72;;;36.84;27.52
71149;BME280;59072;42.144;25.200;2023-06-24T12:52:09;99864.19;;;36.84;27.30
71149;BME280;59072;42.144;25.200;2023-06-24T12:54:35;99858.75;;;36.26;27.58
71149;BME280;59072;42.144;25.200;2023-06-24T12:57:01;99846.78;;;36.58;26.64